sensor_id;sensor_type;location;lat;lon;timestamp;P1;durP1;ratioP1;P2;durP2;ratioP2
78143;SDS011;67394;52.522;13.622;2023-04-10T00:00:07;32.70;;;17.98;;
78143;SDS011;67394;52.522;13.622;2023-04-10T00:02:37;33.08;;;17.63;;
78143;SDS011;67394;52.522;13.622;2023-04-10T00:05:04;33.70;;;18.73;;
78143;SDS011;67394;52.522;13.622;2023-04-10T00:07:31;32.03;;;17.58;;
78143;SDS011;67394;52.522;13.622;2023-04-10T00:09:58;29.67;;;16.73;;
78143;SDS011;67394;52.522;13.622;2023-04-10T00:12:24;31.08;;;17.92;;
78143;SDS011;67394;52.522;13.622;2023-04-10T00:14:50;30.48;;;17.50;;
78143;SDS011;67394;52.522;13.622;2023-04-10T00:17:17;28.58;;;16.48;;
78143;SDS011;67394;52.522;13.622;2023-04-10T00:19:43;29.63;;;16.85;;
78143;SDS011;67394;52.522;13.622;2023-04-10T00:22:09;30.48;;;15.50;;
78143;SDS011;67394;52.522;13.622;2023-04-10T00:24:36;31.20;;;17.13;;
78143;SDS011;67394;52.522;13.622;2023-04-10T00:27:02;28.00;;;15.82;;
78143;SDS011;67394;52.522;13.622;2023-04-10T00:29:28;28.92;;;16.92;;
78143;SDS011;67394;52.522;13.622;2023-04-10T00:31:55;28.40;;;16.08;;
78143;SDS011;67394;52.522;13.622;2023-04-10T00:34:21;30.50;;;17.13;;
78143;SDS011;67394;52.522;13.622;2023-04-10T00:36:47;29.95;;;16.98;;
78143;SDS011;67394;52.522;13.622;2023-04-10T00:39:14;30.73;;;17.50;;
78143;SDS011;67394;52.522;13.622;2023-04-10T00:41:40;31.75;;;16.77;;
78143;SDS011;67394;52.522;13.622;2023-04-10T00:44:06;31.98;;;18.52;;
78143;SDS011;67394;52.522;13.622;2023-04-10T00:46:33;34.22;;;17.17;;
78143;SDS011;67394;52.522;13.622;2023-04-10T00:49:02;30.17;;;16.63;;
78143;SDS011;67394;52.522;13.622;2023-04-10T00:51:29;23.80;;;15.90;;
78143;SDS011;67394;52.522;13.622;2023-04-10T00:53:55;31.05;;;16.13;;
78143;SDS011;67394;52.522;13.622;2023-04-10T00:56:22;26.52;;;15.20;;
78143;SDS011;67394;52.522;13.622;2023-04-10T00:58:49;32.22;;;16.48;;
78143;SDS011;67394;52.522;13.622;2023-04-10T01:01:18;25.55;;;15.35;;
78143;SDS011;67394;52.522;13.622;2023-04-10T01:03:44;31.20;;;15.85;;
78143;SDS011;67394;52.522;13.622;2023-04-10T01:12:50;31.27;;;14.73;;
78143;SDS011;67394;52.522;13.622;2023-04-10T01:15:01;28.27;;;16.08;;
78143;SDS011;67394;52.522;13.622;2023-04-10T01:20:11;33.60;;;16.27;;
78143;SDS011;67394;52.522;13.622;2023-04-10T01:25:45;27.83;;;15.73;;
78143;SDS011;67394;52.522;13.622;2023-04-10T01:34:22;27.98;;;14.82;;
78143;SDS011;67394;52.522;13.622;2023-04-10T01:36:54;27.83;;;13.95;;
78143;SDS011;67394;52.522;13.622;2023-04-10T01:39:24;24.52;;;14.32;;
78143;SDS011;67394;52.522;13.622;2023-04-10T01:41:52;24.48;;;13.98;;
78143;SDS011;67394;52.522;13.622;2023-04-10T01:44:22;25.27;;;13.80;;
78143;SDS011;67394;52.522;13.622;2023-04-10T01:46:50;23.58;;;14.23;;
78143;SDS011;67394;52.522;13.622;2023-04-10T01:49:17;25.55;;;13.35;;
78143;SDS011;67394;52.522;13.622;2023-04-10T01:51:46;24.08;;;14.18;;
78143;SDS011;67394;52.522;13.622;2023-04-10T01:54:13;27.48;;;14.43;;
78143;SDS011;67394;52.522;13.622;2023-04-10T01:56:40;19.95;;;13.30;;
78143;SDS011;67394;52.522;13.622;2023-04-10T01:59:07;22.42;;;13.45;;
78143;SDS011;67394;52.522;13.622;2023-04-10T02:01:36;25.83;;;13.98;;
78143;SDS011;67394;52.522;13.622;2023-04-10T02:04:03;22.63;;;12.40;;
78143;SDS011;67394;52.522;13.622;2023-04-10T02:09:24;23.58;;;13.40;;
78143;SDS011;67394;52.522;13.622;2023-04-10T02:11:54;19.50;;;12.10;;
78143;SDS011;67394;52.522;13.622;2023-04-10T02:14:35;24.10;;;13.38;;
78143;SDS011;67394;52.522;13.622;2023-04-10T02:17:06;26.48;;;14.13;;
78143;SDS011;67394;52.522;13.622;2023-04-10T02:19:34;21.13;;;12.05;;
78143;SDS011;67394;52.522;13.622;2023-04-10T02:22:03;20.63;;;11.90;;
78143;SDS011;67394;52.522;13.622;2023-04-10T02:24:31;22.65;;;13.15;;
78143;SDS011;67394;52.522;13.622;2023-04-10T02:26:58;22.90;;;12.52;;
78143;SDS011;67394;52.522;13.622;2023-04-10T02:29:24;22.60;;;12.45;;
78143;SDS011;67394;52.522;13.622;2023-04-10T02:31:51;22.27;;;13.00;;
78143;SDS011;67394;52.522;13.622;2023-04-10T02:34:17;23.05;;;12.68;;
78143;SDS011;67394;52.522;13.622;2023-04-10T02:36:44;20.55;;;12.13;;
78143;SDS011;67394;52.522;13.622;2023-04-10T02:39:10;20.02;;;12.77;;
78143;SDS011;67394;52.522;13.622;2023-04-10T02:41:36;17.63;;;12.13;;
78143;SDS011;67394;52.522;13.622;2023-04-10T02:44:03;23.27;;;12.65;;
78143;SDS011;67394;52.522;13.622;2023-04-10T02:46:29;23.85;;;12.40;;
78143;SDS011;67394;52.522;13.622;2023-04-10T02:48:55;23.88;;;12.60;;
78143;SDS011;67394;52.522;13.622;2023-04-10T02:51:22;24.45;;;13.13;;
78143;SDS011;67394;52.522;13.622;2023-04-10T02:53:48;20.13;;;12.43;;
78143;SDS011;67394;52.522;13.622;2023-04-10T02:56:14;23.08;;;12.43;;
78143;SDS011;67394;52.522;13.622;2023-04-10T02:58:41;21.77;;;13.32;;
78143;SDS011;67394;52.522;13.622;2023-04-10T03:01:07;20.95;;;12.82;;
78143;SDS011;67394;52.522;13.622;2023-04-10T03:03:33;22.90;;;12.77;;
78143;SDS011;67394;52.522;13.622;2023-04-10T03:06:00;22.45;;;12.85;;
78143;SDS011;67394;52.522;13.622;2023-04-10T03:08:26;20.13;;;12.05;;
78143;SDS011;67394;52.522;13.622;2023-04-10T03:10:53;28.05;;;13.15;;
78143;SDS011;67394;52.522;13.622;2023-04-10T03:13:19;21.70;;;12.10;;
78143;SDS011;67394;52.522;13.622;2023-04-10T03:15:45;20.13;;;12.27;;
78143;SDS011;67394;52.522;13.622;2023-04-10T03:18:12;21.00;;;11.73;;
78143;SDS011;67394;52.522;13.622;2023-04-10T03:20:38;22.42;;;13.30;;
78143;SDS011;67394;52.522;13.622;2023-04-10T03:23:05;21.92;;;12.02;;
78143;SDS011;67394;52.522;13.622;2023-04-10T03:25:36;21.27;;;12.77;;
78143;SDS011;67394;52.522;13.622;2023-04-10T03:28:03;24.02;;;12.38;;
78143;SDS011;67394;52.522;13.622;2023-04-10T03:30:29;22.73;;;12.85;;
78143;SDS011;67394;52.522;13.622;2023-04-10T03:32:55;21.75;;;12.48;;
78143;SDS011;67394;52.522;13.622;2023-04-10T03:35:23;20.60;;;11.82;;
78143;SDS011;67394;52.522;13.622;2023-04-10T03:37:49;20.80;;;11.70;;
78143;SDS011;67394;52.522;13.622;2023-04-10T03:40:15;19.25;;;13.02;;
78143;SDS011;67394;52.522;13.622;2023-04-10T03:42:42;25.95;;;13.27;;
78143;SDS011;67394;52.522;13.622;2023-04-10T03:45:08;22.20;;;12.25;;
78143;SDS011;67394;52.522;13.622;2023-04-10T03:47:35;22.45;;;13.07;;
78143;SDS011;67394;52.522;13.622;2023-04-10T03:50:02;28.45;;;13.43;;
78143;SDS011;67394;52.522;13.622;2023-04-10T03:52:28;20.58;;;13.02;;
78143;SDS011;67394;52.522;13.622;2023-04-10T03:54:54;19.77;;;12.27;;
78143;SDS011;67394;52.522;13.622;2023-04-10T03:57:21;22.67;;;12.32;;
78143;SDS011;67394;52.522;13.622;2023-04-10T03:59:47;22.90;;;13.80;;
78143;SDS011;67394;52.522;13.622;2023-04-10T04:02:13;20.08;;;12.57;;
78143;SDS011;67394;52.522;13.622;2023-04-10T04:04:40;20.40;;;13.00;;
78143;SDS011;67394;52.522;13.622;2023-04-10T04:07:06;23.33;;;13.93;;
78143;SDS011;67394;52.522;13.622;2023-04-10T04:09:33;23.92;;;13.25;;
78143;SDS011;67394;52.522;13.622;2023-04-10T04:11:59;20.38;;;12.23;;
78143;SDS011;67394;52.522;13.622;2023-04-10T04:14:25;20.92;;;12.60;;
78143;SDS011;67394;52.522;13.622;2023-04-10T04:16:52;23.00;;;13.43;;
78143;SDS011;67394;52.522;13.622;2023-04-10T04:19:18;23.75;;;13.25;;
78143;SDS011;67394;52.522;13.622;2023-04-10T04:21:44;23.15;;;12.68;;
78143;SDS011;67394;52.522;13.622;2023-04-10T04:24:11;22.65;;;13.40;;
78143;SDS011;67394;52.522;13.622;2023-04-10T04:26:37;20.38;;;12.32;;
78143;SDS011;67394;52.522;13.622;2023-04-10T04:29:03;23.67;;;14.02;;
78143;SDS011;67394;52.522;13.622;2023-04-10T04:31:30;23.63;;;13.63;;
78143;SDS011;67394;52.522;13.622;2023-04-10T04:33:57;23.25;;;12.13;;
78143;SDS011;67394;52.522;13.622;2023-04-10T04:36:23;22.65;;;12.55;;
78143;SDS011;67394;52.522;13.622;2023-04-10T04:38:50;18.95;;;11.60;;
78143;SDS011;67394;52.522;13.622;2023-04-10T04:41:16;20.60;;;12.13;;
78143;SDS011;67394;52.522;13.622;2023-04-10T04:43:45;20.30;;;12.73;;
78143;SDS011;67394;52.522;13.622;2023-04-10T04:46:12;20.58;;;11.88;;
78143;SDS011;67394;52.522;13.622;2023-04-10T04:48:38;20.70;;;12.50;;
78143;SDS011;67394;52.522;13.622;2023-04-10T04:51:06;21.13;;;12.80;;
78143;SDS011;67394;52.522;13.622;2023-04-10T04:53:32;21.92;;;12.60;;
78143;SDS011;67394;52.522;13.622;2023-04-10T04:55:58;23.20;;;11.77;;
78143;SDS011;67394;52.522;13.622;2023-04-10T04:58:25;21.58;;;12.45;;
78143;SDS011;67394;52.522;13.622;2023-04-10T05:00:51;19.20;;;11.55;;
78143;SDS011;67394;52.522;13.622;2023-04-10T05:03:18;25.55;;;12.60;;
78143;SDS011;67394;52.522;13.622;2023-04-10T05:05:44;23.27;;;12.25;;
78143;SDS011;67394;52.522;13.622;2023-04-10T05:08:11;21.90;;;12.02;;
78143;SDS011;67394;52.522;13.622;2023-04-10T05:10:37;20.40;;;12.38;;
78143;SDS011;67394;52.522;13.622;2023-04-10T05:13:04;20.02;;;11.68;;
78143;SDS011;67394;52.522;13.622;2023-04-10T05:15:30;23.17;;;12.55;;
78143;SDS011;67394;52.522;13.622;2023-04-10T05:17:56;23.30;;;12.68;;
78143;SDS011;67394;52.522;13.622;2023-04-10T05:20:23;23.85;;;13.15;;
78143;SDS011;67394;52.522;13.622;2023-04-10T05:22:49;21.27;;;12.70;;
78143;SDS011;67394;52.522;13.622;2023-04-10T05:25:16;23.10;;;13.40;;
78143;SDS011;67394;52.522;13.622;2023-04-10T05:27:42;21.27;;;13.43;;
78143;SDS011;67394;52.522;13.622;2023-04-10T05:30:08;22.35;;;12.45;;
78143;SDS011;67394;52.522;13.622;2023-04-10T05:32:35;17.90;;;11.48;;
78143;SDS011;67394;52.522;13.622;2023-04-10T05:35:01;21.20;;;13.60;;
78143;SDS011;67394;52.522;13.622;2023-04-10T05:37:28;21.75;;;12.98;;
78143;SDS011;67394;52.522;13.622;2023-04-10T05:39:54;26.25;;;13.95;;
78143;SDS011;67394;52.522;13.622;2023-04-10T05:42:20;22.35;;;14.32;;
78143;SDS011;67394;52.522;13.622;2023-04-10T05:44:49;23.60;;;14.70;;
78143;SDS011;67394;52.522;13.622;2023-04-10T05:47:15;25.45;;;15.68;;
78143;SDS011;67394;52.522;13.622;2023-04-10T05:49:41;24.15;;;14.55;;
78143;SDS011;67394;52.522;13.622;2023-04-10T05:52:08;30.50;;;16.05;;
78143;SDS011;67394;52.522;13.622;2023-04-10T05:54:34;29.55;;;15.35;;
78143;SDS011;67394;52.522;13.622;2023-04-10T05:57:00;28.48;;;16.02;;
78143;SDS011;67394;52.522;13.622;2023-04-10T05:59:27;28.45;;;16.30;;
78143;SDS011;67394;52.522;13.622;2023-04-10T06:01:55;29.35;;;16.48;;
78143;SDS011;67394;52.522;13.622;2023-04-10T06:04:22;27.40;;;15.73;;
78143;SDS011;67394;52.522;13.622;2023-04-10T06:06:49;28.38;;;14.25;;
78143;SDS011;67394;52.522;13.622;2023-04-10T06:09:15;30.27;;;15.95;;
78143;SDS011;67394;52.522;13.622;2023-04-10T06:11:41;29.17;;;15.45;;
78143;SDS011;67394;52.522;13.622;2023-04-10T06:14:08;28.00;;;15.48;;
78143;SDS011;67394;52.522;13.622;2023-04-10T06:16:34;25.65;;;15.23;;
78143;SDS011;67394;52.522;13.622;2023-04-10T06:19:01;31.35;;;16.38;;
78143;SDS011;67394;52.522;13.622;2023-04-10T06:21:27;27.52;;;16.15;;
78143;SDS011;67394;52.522;13.622;2023-04-10T06:23:53;25.98;;;15.43;;
78143;SDS011;67394;52.522;13.622;2023-04-10T06:26:20;28.20;;;16.00;;
78143;SDS011;67394;52.522;13.622;2023-04-10T06:28:46;27.38;;;16.67;;
78143;SDS011;67394;52.522;13.622;2023-04-10T06:31:13;28.40;;;15.90;;
78143;SDS011;67394;52.522;13.622;2023-04-10T06:33:39;33.15;;;17.30;;
78143;SDS011;67394;52.522;13.622;2023-04-10T06:36:06;27.73;;;16.45;;
78143;SDS011;67394;52.522;13.622;2023-04-10T06:38:32;24.95;;;16.02;;
78143;SDS011;67394;52.522;13.622;2023-04-10T06:40:59;35.80;;;18.33;;
78143;SDS011;67394;52.522;13.622;2023-04-10T06:43:25;32.03;;;17.77;;
78143;SDS011;67394;52.522;13.622;2023-04-10T06:45:51;29.85;;;17.15;;
78143;SDS011;67394;52.522;13.622;2023-04-10T06:48:18;30.30;;;16.38;;
78143;SDS011;67394;52.522;13.622;2023-04-10T06:50:44;30.65;;;17.95;;
78143;SDS011;67394;52.522;13.622;2023-04-10T06:53:10;28.05;;;17.40;;
78143;SDS011;67394;52.522;13.622;2023-04-10T06:55:36;30.35;;;17.23;;
78143;SDS011;67394;52.522;13.622;2023-04-10T06:58:03;27.65;;;16.23;;
78143;SDS011;67394;52.522;13.622;2023-04-10T07:00:29;28.60;;;17.50;;
78143;SDS011;67394;52.522;13.622;2023-04-10T07:02:56;28.33;;;15.63;;
78143;SDS011;67394;52.522;13.622;2023-04-10T07:05:22;32.38;;;16.65;;
78143;SDS011;67394;52.522;13.622;2023-04-10T07:07:48;29.23;;;17.05;;
78143;SDS011;67394;52.522;13.622;2023-04-10T07:10:15;31.25;;;18.30;;
78143;SDS011;67394;52.522;13.622;2023-04-10T07:12:42;35.00;;;18.50;;
78143;SDS011;67394;52.522;13.622;2023-04-10T07:15:08;35.72;;;19.35;;
78143;SDS011;67394;52.522;13.622;2023-04-10T07:17:35;31.77;;;18.50;;
78143;SDS011;67394;52.522;13.622;2023-04-10T07:20:01;37.70;;;21.38;;
78143;SDS011;67394;52.522;13.622;2023-04-10T07:22:28;35.15;;;20.20;;
78143;SDS011;67394;52.522;13.622;2023-04-10T07:24:54;38.83;;;19.60;;
78143;SDS011;67394;52.522;13.622;2023-04-10T07:27:20;31.27;;;18.30;;
78143;SDS011;67394;52.522;13.622;2023-04-10T07:29:46;37.33;;;21.10;;
78143;SDS011;67394;52.522;13.622;2023-04-10T07:32:13;43.58;;;20.77;;
78143;SDS011;67394;52.522;13.622;2023-04-10T07:34:39;35.72;;;18.13;;
78143;SDS011;67394;52.522;13.622;2023-04-10T07:37:06;35.17;;;20.63;;
78143;SDS011;67394;52.522;13.622;2023-04-10T07:39:32;34.33;;;20.35;;
78143;SDS011;67394;52.522;13.622;2023-04-10T07:41:58;35.42;;;19.13;;
78143;SDS011;67394;52.522;13.622;2023-04-10T07:44:25;36.38;;;19.45;;
78143;SDS011;67394;52.522;13.622;2023-04-10T07:46:51;34.10;;;19.42;;
78143;SDS011;67394;52.522;13.622;2023-04-10T07:49:18;36.58;;;19.25;;
78143;SDS011;67394;52.522;13.622;2023-04-10T07:51:44;33.03;;;19.55;;
78143;SDS011;67394;52.522;13.622;2023-04-10T07:54:11;35.47;;;19.20;;
78143;SDS011;67394;52.522;13.622;2023-04-10T07:56:37;32.58;;;18.27;;
78143;SDS011;67394;52.522;13.622;2023-04-10T07:59:04;31.90;;;17.60;;
78143;SDS011;67394;52.522;13.622;2023-04-10T08:03:56;35.67;;;18.50;;
78143;SDS011;67394;52.522;13.622;2023-04-10T08:06:23;30.88;;;19.45;;
78143;SDS011;67394;52.522;13.622;2023-04-10T08:08:50;33.17;;;18.60;;
78143;SDS011;67394;52.522;13.622;2023-04-10T08:11:26;30.35;;;18.95;;
78143;SDS011;67394;52.522;13.622;2023-04-10T08:13:57;31.35;;;18.67;;
78143;SDS011;67394;52.522;13.622;2023-04-10T08:16:29;30.17;;;17.25;;
78143;SDS011;67394;52.522;13.622;2023-04-10T08:18:59;30.33;;;16.95;;
78143;SDS011;67394;52.522;13.622;2023-04-10T08:21:27;31.50;;;16.45;;
78143;SDS011;67394;52.522;13.622;2023-04-10T08:23:55;29.77;;;16.65;;
78143;SDS011;67394;52.522;13.622;2023-04-10T08:26:23;30.27;;;17.38;;
78143;SDS011;67394;52.522;13.622;2023-04-10T08:28:51;27.15;;;16.40;;
78143;SDS011;67394;52.522;13.622;2023-04-10T08:31:19;33.38;;;18.00;;
78143;SDS011;67394;52.522;13.622;2023-04-10T08:33:47;27.52;;;15.68;;
78143;SDS011;67394;52.522;13.622;2023-04-10T08:36:14;26.70;;;14.88;;
78143;SDS011;67394;52.522;13.622;2023-04-10T08:38:44;24.83;;;14.23;;
78143;SDS011;67394;52.522;13.622;2023-04-10T08:41:14;23.90;;;13.13;;
78143;SDS011;67394;52.522;13.622;2023-04-10T08:43:42;23.23;;;13.18;;
78143;SDS011;67394;52.522;13.622;2023-04-10T08:46:08;23.02;;;12.75;;
78143;SDS011;67394;52.522;13.622;2023-04-10T08:48:37;21.40;;;11.88;;
78143;SDS011;67394;52.522;13.622;2023-04-10T08:51:12;20.75;;;11.75;;
78143;SDS011;67394;52.522;13.622;2023-04-10T08:53:46;19.42;;;12.20;;
78143;SDS011;67394;52.522;13.622;2023-04-10T08:56:16;19.25;;;11.65;;
78143;SDS011;67394;52.522;13.622;2023-04-10T08:58:44;18.08;;;12.30;;
78143;SDS011;67394;52.522;13.622;2023-04-10T09:01:10;21.73;;;12.07;;
78143;SDS011;67394;52.522;13.622;2023-04-10T09:03:37;23.83;;;12.32;;
78143;SDS011;67394;52.522;13.622;2023-04-10T09:06:03;20.20;;;12.95;;
78143;SDS011;67394;52.522;13.622;2023-04-10T09:08:31;21.73;;;12.32;;
78143;SDS011;67394;52.522;13.622;2023-04-10T09:10:58;19.85;;;11.63;;
78143;SDS011;67394;52.522;13.622;2023-04-10T09:13:34;19.33;;;11.43;;
78143;SDS011;67394;52.522;13.622;2023-04-10T09:16:02;20.75;;;11.80;;
78143;SDS011;67394;52.522;13.622;2023-04-10T09:21:13;18.35;;;11.30;;
78143;SDS011;67394;52.522;13.622;2023-04-10T09:23:41;19.67;;;12.35;;
78143;SDS011;67394;52.522;13.622;2023-04-10T09:26:25;21.05;;;11.75;;
78143;SDS011;67394;52.522;13.622;2023-04-10T09:28:55;16.92;;;11.20;;
78143;SDS011;67394;52.522;13.622;2023-04-10T09:31:30;20.38;;;10.82;;
78143;SDS011;67394;52.522;13.622;2023-04-10T09:36:35;16.30;;;10.90;;
78143;SDS011;67394;52.522;13.622;2023-04-10T09:39:03;20.05;;;11.18;;
78143;SDS011;67394;52.522;13.622;2023-04-10T09:41:30;17.63;;;10.60;;
78143;SDS011;67394;52.522;13.622;2023-04-10T09:44:09;16.20;;;9.82;;
78143;SDS011;67394;52.522;13.622;2023-04-10T09:46:36;16.48;;;9.73;;
78143;SDS011;67394;52.522;13.622;2023-04-10T09:49:03;15.32;;;8.90;;
78143;SDS011;67394;52.522;13.622;2023-04-10T09:51:30;14.10;;;8.60;;
78143;SDS011;67394;52.522;13.622;2023-04-10T09:53:57;12.48;;;8.55;;
78143;SDS011;67394;52.522;13.622;2023-04-10T09:56:24;13.60;;;7.90;;
78143;SDS011;67394;52.522;13.622;2023-04-10T09:58:50;13.35;;;7.90;;
78143;SDS011;67394;52.522;13.622;2023-04-10T10:01:21;14.68;;;8.43;;
78143;SDS011;67394;52.522;13.622;2023-04-10T10:06:15;12.75;;;8.10;;
78143;SDS011;67394;52.522;13.622;2023-04-10T10:08:41;15.68;;;8.15;;
78143;SDS011;67394;52.522;13.622;2023-04-10T10:11:09;12.48;;;7.40;;
78143;SDS011;67394;52.522;13.622;2023-04-10T10:13:48;13.73;;;8.13;;
78143;SDS011;67394;52.522;13.622;2023-04-10T10:21:33;10.60;;;7.45;;
78143;SDS011;67394;52.522;13.622;2023-04-10T10:24:01;10.05;;;7.22;;
78143;SDS011;67394;52.522;13.622;2023-04-10T10:26:29;12.40;;;6.97;;
78143;SDS011;67394;52.522;13.622;2023-04-10T10:29:00;13.25;;;7.70;;
78143;SDS011;67394;52.522;13.622;2023-04-10T10:31:28;10.18;;;6.82;;
78143;SDS011;67394;52.522;13.622;2023-04-10T10:33:58;9.50;;;6.65;;
78143;SDS011;67394;52.522;13.622;2023-04-10T10:36:26;9.88;;;6.93;;
78143;SDS011;67394;52.522;13.622;2023-04-10T10:38:55;13.57;;;8.48;;
78143;SDS011;67394;52.522;13.622;2023-04-10T10:41:32;12.65;;;7.38;;
78143;SDS011;67394;52.522;13.622;2023-04-10T10:44:10;11.43;;;7.85;;
78143;SDS011;67394;52.522;13.622;2023-04-10T10:46:47;11.48;;;7.88;;
78143;SDS011;67394;52.522;13.622;2023-04-10T10:49:16;13.20;;;7.78;;
78143;SDS011;67394;52.522;13.622;2023-04-10T10:51:49;13.40;;;9.05;;
78143;SDS011;67394;52.522;13.622;2023-04-10T10:54:29;12.20;;;7.82;;
78143;SDS011;67394;52.522;13.622;2023-04-10T10:57:00;14.85;;;8.13;;
78143;SDS011;67394;52.522;13.622;2023-04-10T11:02:13;14.00;;;8.77;;
78143;SDS011;67394;52.522;13.622;2023-04-10T11:04:47;14.82;;;10.25;;
78143;SDS011;67394;52.522;13.622;2023-04-10T11:07:14;13.18;;;8.30;;
78143;SDS011;67394;52.522;13.622;2023-04-10T11:09:51;13.35;;;9.68;;
78143;SDS011;67394;52.522;13.622;2023-04-10T11:12:20;14.05;;;8.88;;
78143;SDS011;67394;52.522;13.622;2023-04-10T11:17:47;13.05;;;8.75;;
78143;SDS011;67394;52.522;13.622;2023-04-10T11:20:17;14.80;;;9.75;;
78143;SDS011;67394;52.522;13.622;2023-04-10T11:25:49;14.02;;;9.60;;
78143;SDS011;67394;52.522;13.622;2023-04-10T11:33:39;10.75;;;8.05;;
78143;SDS011;67394;52.522;13.622;2023-04-10T11:36:06;12.18;;;7.85;;
78143;SDS011;67394;52.522;13.622;2023-04-10T11:38:33;12.48;;;7.60;;
78143;SDS011;67394;52.522;13.622;2023-04-10T11:43:27;10.63;;;7.10;;
78143;SDS011;67394;52.522;13.622;2023-04-10T11:46:00;9.75;;;5.90;;
78143;SDS011;67394;52.522;13.622;2023-04-10T11:48:31;8.48;;;5.75;;
78143;SDS011;67394;52.522;13.622;2023-04-10T11:53:24;7.72;;;5.00;;
78143;SDS011;67394;52.522;13.622;2023-04-10T11:55:50;8.85;;;5.90;;
78143;SDS011;67394;52.522;13.622;2023-04-10T11:58:23;9.00;;;6.35;;
78143;SDS011;67394;52.522;13.622;2023-04-10T12:01:01;9.07;;;6.60;;
78143;SDS011;67394;52.522;13.622;2023-04-10T12:03:36;11.02;;;7.03;;
78143;SDS011;67394;52.522;13.622;2023-04-10T12:06:07;13.55;;;6.93;;
78143;SDS011;67394;52.522;13.622;2023-04-10T12:08:39;11.15;;;7.45;;
78143;SDS011;67394;52.522;13.622;2023-04-10T12:11:07;9.35;;;6.90;;
78143;SDS011;67394;52.522;13.622;2023-04-10T12:13:34;9.13;;;6.20;;
78143;SDS011;67394;52.522;13.622;2023-04-10T12:18:34;9.23;;;6.78;;
78143;SDS011;67394;52.522;13.622;2023-04-10T12:21:02;9.88;;;6.72;;
78143;SDS011;67394;52.522;13.622;2023-04-10T12:23:32;10.32;;;6.18;;
78143;SDS011;67394;52.522;13.622;2023-04-10T12:26:12;8.98;;;5.88;;
78143;SDS011;67394;52.522;13.622;2023-04-10T12:28:41;6.65;;;5.32;;
78143;SDS011;67394;52.522;13.622;2023-04-10T12:31:14;7.32;;;5.75;;
78143;SDS011;67394;52.522;13.622;2023-04-10T12:33:44;9.30;;;5.53;;
78143;SDS011;67394;52.522;13.622;2023-04-10T12:36:21;8.90;;;6.07;;
78143;SDS011;67394;52.522;13.622;2023-04-10T12:38:48;9.38;;;6.20;;
78143;SDS011;67394;52.522;13.622;2023-04-10T12:43:46;9.57;;;6.85;;
78143;SDS011;67394;52.522;13.622;2023-04-10T12:46:21;9.55;;;5.90;;
78143;SDS011;67394;52.522;13.622;2023-04-10T12:48:49;9.73;;;5.82;;
78143;SDS011;67394;52.522;13.622;2023-04-10T12:51:16;9.70;;;7.15;;
78143;SDS011;67394;52.522;13.622;2023-04-10T12:53:43;10.55;;;6.32;;
78143;SDS011;67394;52.522;13.622;2023-04-10T12:56:10;8.55;;;6.20;;
78143;SDS011;67394;52.522;13.622;2023-04-10T12:58:37;8.30;;;5.60;;
78143;SDS011;67394;52.522;13.622;2023-04-10T13:03:34;7.75;;;6.22;;
78143;SDS011;67394;52.522;13.622;2023-04-10T13:06:01;8.75;;;5.40;;
78143;SDS011;67394;52.522;13.622;2023-04-10T13:08:30;7.45;;;4.85;;
78143;SDS011;67394;52.522;13.622;2023-04-10T13:10:56;6.93;;;5.75;;
78143;SDS011;67394;52.522;13.622;2023-04-10T13:13:25;8.25;;;5.60;;
78143;SDS011;67394;52.522;13.622;2023-04-10T13:15:52;9.27;;;6.00;;
78143;SDS011;67394;52.522;13.622;2023-04-10T13:18:18;8.35;;;5.50;;
78143;SDS011;67394;52.522;13.622;2023-04-10T13:20:44;9.20;;;5.85;;
78143;SDS011;67394;52.522;13.622;2023-04-10T13:23:11;8.75;;;5.50;;
78143;SDS011;67394;52.522;13.622;2023-04-10T13:25:37;6.63;;;5.57;;
78143;SDS011;67394;52.522;13.622;2023-04-10T13:28:06;9.75;;;5.90;;
78143;SDS011;67394;52.522;13.622;2023-04-10T13:30:32;9.35;;;5.75;;
78143;SDS011;67394;52.522;13.622;2023-04-10T13:32:58;8.43;;;5.88;;
78143;SDS011;67394;52.522;13.622;2023-04-10T13:35:25;8.85;;;5.93;;
78143;SDS011;67394;52.522;13.622;2023-04-10T13:37:51;9.93;;;6.10;;
78143;SDS011;67394;52.522;13.622;2023-04-10T13:40:18;7.30;;;6.03;;
78143;SDS011;67394;52.522;13.622;2023-04-10T13:42:44;9.05;;;6.07;;
78143;SDS011;67394;52.522;13.622;2023-04-10T13:45:10;9.07;;;6.35;;
78143;SDS011;67394;52.522;13.622;2023-04-10T13:47:37;7.28;;;5.97;;
78143;SDS011;67394;52.522;13.622;2023-04-10T13:50:04;9.27;;;6.05;;
78143;SDS011;67394;52.522;13.622;2023-04-10T13:52:31;8.18;;;5.78;;
78143;SDS011;67394;52.522;13.622;2023-04-10T13:54:57;9.98;;;6.93;;
78143;SDS011;67394;52.522;13.622;2023-04-10T13:57:23;9.20;;;6.57;;
78143;SDS011;67394;52.522;13.622;2023-04-10T13:59:50;10.15;;;6.38;;
78143;SDS011;67394;52.522;13.622;2023-04-10T14:02:16;8.50;;;6.35;;
78143;SDS011;67394;52.522;13.622;2023-04-10T14:04:42;10.05;;;6.93;;
78143;SDS011;67394;52.522;13.622;2023-04-10T14:07:09;12.73;;;7.22;;
78143;SDS011;67394;52.522;13.622;2023-04-10T14:09:35;10.32;;;7.25;;
78143;SDS011;67394;52.522;13.622;2023-04-10T14:12:01;9.60;;;7.72;;
78143;SDS011;67394;52.522;13.622;2023-04-10T14:14:28;9.93;;;7.15;;
78143;SDS011;67394;52.522;13.622;2023-04-10T14:16:54;9.18;;;6.40;;
78143;SDS011;67394;52.522;13.622;2023-04-10T14:19:21;10.85;;;7.20;;
78143;SDS011;67394;52.522;13.622;2023-04-10T14:21:47;10.65;;;7.10;;
78143;SDS011;67394;52.522;13.622;2023-04-10T14:24:13;10.10;;;7.35;;
78143;SDS011;67394;52.522;13.622;2023-04-10T14:26:39;11.38;;;8.40;;
78143;SDS011;67394;52.522;13.622;2023-04-10T14:29:06;11.48;;;7.93;;
78143;SDS011;67394;52.522;13.622;2023-04-10T14:31:32;10.50;;;8.18;;
78143;SDS011;67394;52.522;13.622;2023-04-10T14:34:04;11.45;;;7.55;;
78143;SDS011;67394;52.522;13.622;2023-04-10T14:36:30;9.95;;;7.50;;
78143;SDS011;67394;52.522;13.622;2023-04-10T14:38:56;12.32;;;8.23;;
78143;SDS011;67394;52.522;13.622;2023-04-10T14:41:23;11.95;;;8.35;;
78143;SDS011;67394;52.522;13.622;2023-04-10T14:43:49;14.23;;;8.27;;
78143;SDS011;67394;52.522;13.622;2023-04-10T14:46:16;12.25;;;8.30;;
78143;SDS011;67394;52.522;13.622;2023-04-10T14:48:42;11.95;;;8.23;;
78143;SDS011;67394;52.522;13.622;2023-04-10T14:51:08;12.82;;;8.15;;
78143;SDS011;67394;52.522;13.622;2023-04-10T14:53:35;12.77;;;8.35;;
78143;SDS011;67394;52.522;13.622;2023-04-10T14:56:07;10.18;;;7.50;;
78143;SDS011;67394;52.522;13.622;2023-04-10T14:58:34;9.63;;;7.22;;
78143;SDS011;67394;52.522;13.622;2023-04-10T15:01:01;11.02;;;7.47;;
78143;SDS011;67394;52.522;13.622;2023-04-10T15:03:27;12.75;;;8.05;;
78143;SDS011;67394;52.522;13.622;2023-04-10T15:05:59;10.95;;;7.60;;
78143;SDS011;67394;52.522;13.622;2023-04-10T15:08:26;12.10;;;7.78;;
78143;SDS011;67394;52.522;13.622;2023-04-10T15:10:52;12.23;;;7.22;;
78143;SDS011;67394;52.522;13.622;2023-04-10T15:13:19;14.77;;;7.57;;
78143;SDS011;67394;52.522;13.622;2023-04-10T15:15:46;10.05;;;7.80;;
78143;SDS011;67394;52.522;13.622;2023-04-10T15:20:39;10.20;;;6.72;;
78143;SDS011;67394;52.522;13.622;2023-04-10T15:23:05;10.57;;;6.53;;